createdAt,value
2023-03-24T00:00:24.567Z,14.10
2023-03-24T00:02:52.464Z,14.10
2023-03-24T00:05:22.335Z,14.20
2023-03-24T00:07:54.590Z,14.20
2023-03-24T00:10:23.476Z,14.10
2023-03-24T00:12:51.621Z,14.10
2023-03-24T00:15:21.405Z,14.10
2023-03-24T00:17:52.472Z,14.10
2023-03-24T00:20:22.338Z,14.00
2023-03-24T00:22:57.000Z,13.90
2023-03-24T00:25:33.989Z,13.80
2023-03-24T00:28:01.554Z,13.70
2023-03-24T00:30:29.317Z,13.60
2023-03-24T00:32:59.203Z,13.50
2023-03-24T00:35:26.457Z,13.70
2023-03-24T00:37:54.058Z,13.70
2023-03-24T00:40:22.204Z,13.90
2023-03-24T00:42:50.328Z,13.80
2023-03-24T00:45:20.417Z,13.80
2023-03-24T00:47:50.384Z,13.60
2023-03-24T00:50:20.660Z,13.60
2023-03-24T00:52:49.432Z,13.60
2023-03-24T00:55:17.331Z,13.60
2023-03-24T00:57:52.397Z,13.60
2023-03-24T01:00:24.543Z,13.60
2023-03-24T01:02:56.500Z,13.60
2023-03-24T01:05:28.079Z,13.60
2023-03-24T01:08:06.391Z,13.60
2023-03-24T01:10:42.647Z,13.50
2023-03-24T01:13:10.497Z,13.60
2023-03-24T01:15:38.447Z,13.50
2023-03-24T01:18:06.567Z,13.40
2023-03-24T01:20:33.774Z,13.30
2023-03-24T01:23:01.963Z,13.20
2023-03-24T01:25:30.624Z,13.20
2023-03-24T01:27:58.015Z,13.20
2023-03-24T01:30:27.266Z,13.20
2023-03-24T01:32:55.208Z,13.30
2023-03-24T01:35:28.405Z,13.30
2023-03-24T01:37:56.785Z,13.30
2023-03-24T01:44:34.545Z,13.20
2023-03-24T01:47:02.707Z,12.90
2023-03-24T01:49:47.881Z,13.00
2023-03-24T01:52:24.350Z,13.10
2023-03-24T01:54:56.330Z,13.00
2023-03-24T01:57:31.405Z,13.00
2023-03-24T02:00:04.909Z,13.00
2023-03-24T02:02:46.260Z,13.10
2023-03-24T02:05:19.556Z,13.20
2023-03-24T02:07:53.251Z,13.40
2023-03-24T02:10:22.116Z,13.40
2023-03-24T02:12:49.175Z,13.30
2023-03-24T02:15:19.052Z,13.40
2023-03-24T02:18:21.263Z,13.50
2023-03-24T02:21:34.425Z,13.60
2023-03-24T02:24:38.498Z,13.60
2023-03-24T02:27:50.056Z,13.50
2023-03-24T02:31:09.222Z,13.60
2023-03-24T02:34:41.188Z,13.60
2023-03-24T02:37:43.922Z,13.40
2023-03-24T02:40:54.828Z,13.40
2023-03-24T02:43:59.096Z,13.40
2023-03-24T02:46:56.231Z,13.40
2023-03-24T02:50:31.840Z,13.40
2023-03-24T02:57:13.468Z,13.00
2023-03-24T03:00:30.959Z,13.00
2023-03-24T03:03:41.642Z,13.00
2023-03-24T03:06:17.819Z,12.90
2023-03-24T03:08:48.064Z,12.70
2023-03-24T03:11:17.557Z,12.80
2023-03-24T03:13:54.576Z,12.80
2023-03-24T03:16:27.831Z,12.90
2023-03-24T03:18:58.913Z,13.10
2023-03-24T03:21:31.452Z,13.10
2023-03-24T03:24:06.365Z,13.40
2023-03-24T03:26:34.563Z,13.40
2023-03-24T03:29:16.852Z,13.50
2023-03-24T03:31:53.256Z,13.60
2023-03-24T03:34:50.266Z,13.40
2023-03-24T03:37:31.954Z,13.20
2023-03-24T03:40:12.674Z,13.10
2023-03-24T03:42:44.694Z,13.20
2023-03-24T03:45:12.524Z,13.10
2023-03-24T03:47:40.145Z,13.00
2023-03-24T03:50:09.555Z,13.00
2023-03-24T03:52:38.943Z,13.00
2023-03-24T03:55:07.634Z,13.00
2023-03-24T03:57:36.370Z,13.10
2023-03-24T04:00:24.729Z,13.20
2023-03-24T04:04:02.048Z,13.20
2023-03-24T04:07:30.940Z,13.20
2023-03-24T04:10:54.620Z,13.30
2023-03-24T04:13:54.866Z,13.30
2023-03-24T04:17:02.632Z,13.20
2023-03-24T04:20:12.185Z,13.10
2023-03-24T04:23:20.124Z,13.20
2023-03-24T04:26:12.401Z,13.30
2023-03-24T04:29:17.984Z,13.30
2023-03-24T04:31:59.220Z,13.30
2023-03-24T04:34:45.673Z,13.30
2023-03-24T04:37:32.926Z,13.50
2023-03-24T04:40:13.254Z,13.50
2023-03-24T04:42:47.792Z,13.40
2023-03-24T04:45:17.162Z,13.50
2023-03-24T04:48:05.923Z,13.40
2023-03-24T04:50:57.318Z,13.30
2023-03-24T04:53:26.665Z,13.30
2023-03-24T04:56:12.627Z,13.30
2023-03-24T04:59:07.223Z,13.30
2023-03-24T05:01:37.694Z,13.20
2023-03-24T05:04:26.922Z,13.20
2023-03-24T05:06:55.295Z,13.10
2023-03-24T05:09:26.446Z,13.00
2023-03-24T05:11:53.755Z,13.00
2023-03-24T05:14:23.374Z,12.90
2023-03-24T05:16:51.184Z,12.90
2023-03-24T05:19:20.176Z,12.80
2023-03-24T05:21:47.925Z,12.70
2023-03-24T05:24:15.002Z,12.70
2023-03-24T05:26:42.247Z,12.50
2023-03-24T05:29:17.976Z,12.50
2023-03-24T05:31:45.742Z,12.50
2023-03-24T05:34:17.807Z,12.50
2023-03-24T05:36:53.166Z,12.60
2023-03-24T05:39:21.784Z,12.60
2023-03-24T05:41:56.042Z,12.60
2023-03-24T05:44:23.314Z,12.60
2023-03-24T05:47:04.921Z,12.60
2023-03-24T05:49:32.133Z,12.50
2023-03-24T05:52:00.627Z,12.60
2023-03-24T05:54:28.174Z,12.60
2023-03-24T05:57:15.013Z,12.60
2023-03-24T06:00:11.308Z,12.60
2023-03-24T06:02:41.619Z,12.50
2023-03-24T06:05:22.830Z,12.50
2023-03-24T06:07:49.999Z,12.50
2023-03-24T06:10:18.429Z,12.60
2023-03-24T06:12:51.125Z,12.70
2023-03-24T06:15:19.102Z,12.70
2023-03-24T06:17:48.206Z,12.70
2023-03-24T06:20:29.337Z,12.80
2023-03-24T06:23:11.780Z,12.80
2023-03-24T06:25:59.136Z,12.80
2023-03-24T06:28:30.525Z,12.80
2023-03-24T06:31:00.969Z,12.90
2023-03-24T06:33:35.052Z,12.90
2023-03-24T06:36:04.425Z,12.90
2023-03-24T06:38:33.588Z,12.90
2023-03-24T06:41:02.931Z,12.90
2023-03-24T06:43:31.497Z,12.90
2023-03-24T06:45:59.862Z,12.90
2023-03-24T06:48:28.671Z,12.90
2023-03-24T06:51:02.176Z,13.00
2023-03-24T06:53:29.279Z,13.00
2023-03-24T06:55:56.958Z,13.00
2023-03-24T06:58:26.403Z,13.00
2023-03-24T07:01:07.538Z,13.00
2023-03-24T07:03:37.995Z,12.90
2023-03-24T07:06:50.885Z,13.00
2023-03-24T07:09:27.269Z,13.00
2023-03-24T07:11:54.412Z,13.00
2023-03-24T07:14:22.205Z,12.90
2023-03-24T07:16:50.061Z,12.90
2023-03-24T07:19:45.030Z,12.90
2023-03-24T07:22:32.624Z,12.90
2023-03-24T07:25:23.022Z,12.90
2023-03-24T07:28:01.618Z,12.90
2023-03-24T07:30:39.907Z,12.80
2023-03-24T07:33:10.988Z,12.80
2023-03-24T07:35:39.546Z,12.80
2023-03-24T07:38:07.461Z,12.90
2023-03-24T07:40:37.421Z,12.90
2023-03-24T07:43:06.222Z,12.80
2023-03-24T07:45:46.011Z,12.90
2023-03-24T07:48:14.093Z,12.90
2023-03-24T07:50:41.287Z,12.90
2023-03-24T07:53:28.322Z,12.90
2023-03-24T07:55:55.764Z,13.00
2023-03-24T07:58:24.426Z,13.00
2023-03-24T08:01:20.797Z,13.00
2023-03-24T08:03:54.620Z,13.00
2023-03-24T08:06:44.360Z,13.00
2023-03-24T08:09:12.594Z,13.00
2023-03-24T08:11:39.907Z,13.00
2023-03-24T08:14:07.369Z,13.10
2023-03-24T08:16:34.691Z,13.20
2023-03-24T08:19:01.866Z,13.10
2023-03-24T08:21:29.028Z,13.20
2023-03-24T08:23:56.712Z,13.10
2023-03-24T08:26:26.760Z,13.00
2023-03-24T08:28:54.193Z,13.00
2023-03-24T08:31:21.434Z,13.00
2023-03-24T08:33:48.525Z,12.90
2023-03-24T08:36:15.640Z,13.00
2023-03-24T08:38:42.761Z,12.90
2023-03-24T08:41:10.097Z,12.90
2023-03-24T08:43:37.718Z,12.80
2023-03-24T08:46:08.155Z,12.80
2023-03-24T08:48:37.237Z,12.80
2023-03-24T08:51:12.027Z,12.80
2023-03-24T08:53:39.231Z,12.80
2023-03-24T08:56:07.114Z,12.80
2023-03-24T08:58:34.325Z,12.80
2023-03-24T09:01:02.436Z,12.80
2023-03-24T09:03:30.986Z,12.80
2023-03-24T09:05:58.546Z,12.90
2023-03-24T09:08:26.306Z,12.90
2023-03-24T09:10:53.395Z,13.00
2023-03-24T09:13:21.147Z,13.00
2023-03-24T09:15:58.783Z,13.00
2023-03-24T09:18:26.140Z,13.00
2023-03-24T09:20:53.485Z,12.90
2023-03-24T09:23:21.626Z,13.00
2023-03-24T09:25:50.743Z,13.00
2023-03-24T09:28:18.476Z,13.00
2023-03-24T09:30:45.575Z,13.00
2023-03-24T09:33:12.900Z,13.00
2023-03-24T09:35:40.642Z,12.90
2023-03-24T09:38:07.761Z,12.90
2023-03-24T09:40:40.588Z,12.90
2023-03-24T09:43:37.877Z,13.00
2023-03-24T09:46:11.086Z,12.90
2023-03-24T09:49:04.816Z,12.80
2023-03-24T09:51:43.902Z,12.70
2023-03-24T09:54:46.963Z,12.60
2023-03-24T09:57:32.857Z,12.40
2023-03-24T10:00:00.003Z,12.30
2023-03-24T10:02:30.499Z,12.40
2023-03-24T10:04:57.659Z,12.40
2023-03-24T10:07:46.603Z,12.40
2023-03-24T10:10:29.932Z,12.40
2023-03-24T10:13:07.284Z,12.50
2023-03-24T10:15:55.603Z,12.50
2023-03-24T10:19:08.303Z,12.60
2023-03-24T10:21:40.350Z,12.70
2023-03-24T10:24:30.031Z,12.80
2023-03-24T10:27:30.397Z,12.80
2023-03-24T10:30:20.838Z,12.60
2023-03-24T10:32:48.052Z,12.60
2023-03-24T10:35:19.860Z,12.70
2023-03-24T10:37:47.984Z,12.60
2023-03-24T10:40:19.056Z,12.60
2023-03-24T10:42:48.971Z,12.70
2023-03-24T10:45:29.661Z,12.70
2023-03-24T10:47:59.786Z,12.50
2023-03-24T10:50:32.858Z,12.40
2023-03-24T10:53:00.157Z,12.50
2023-03-24T10:55:35.793Z,12.50
2023-03-24T10:58:03.487Z,12.50
2023-03-24T11:00:32.456Z,12.50
2023-03-24T11:03:12.628Z,12.50
2023-03-24T11:05:41.942Z,12.50
2023-03-24T11:08:28.722Z,12.40
2023-03-24T11:10:56.052Z,12.30
2023-03-24T11:13:33.770Z,12.40
2023-03-24T11:16:15.888Z,12.30
2023-03-24T11:19:06.052Z,12.20
2023-03-24T11:21:36.803Z,12.30
2023-03-24T11:24:14.743Z,12.30
2023-03-24T11:27:05.180Z,12.20
2023-03-24T11:29:38.427Z,12.20
2023-03-24T11:32:13.856Z,12.20
2023-03-24T11:34:49.056Z,12.20
2023-03-24T11:37:22.371Z,12.10
2023-03-24T11:40:25.867Z,12.10
2023-03-24T11:43:01.188Z,12.00
2023-03-24T11:45:44.619Z,12.00
2023-03-24T11:48:45.693Z,11.90
2023-03-24T11:51:21.623Z,11.90
2023-03-24T11:53:52.926Z,11.90
2023-03-24T11:56:56.613Z,11.90
2023-03-24T11:59:58.999Z,11.90
2023-03-24T12:03:02.914Z,11.90
2023-03-24T12:06:11.164Z,11.80
2023-03-24T12:09:27.638Z,11.60
2023-03-24T12:15:34.264Z,11.70
2023-03-24T12:18:34.918Z,11.70
2023-03-24T12:42:46.965Z,12.00
2023-03-24T13:07:39.385Z,12.00
2023-03-24T13:10:33.374Z,11.90
2023-03-24T13:13:25.004Z,11.90
2023-03-24T13:15:56.503Z,11.90
2023-03-24T13:18:56.809Z,11.90
2023-03-24T13:21:26.611Z,11.70
2023-03-24T13:24:26.909Z,11.70
2023-03-24T13:27:21.908Z,11.70
2023-03-24T13:30:31.542Z,11.80
2023-03-24T13:33:14.708Z,11.80
2023-03-24T13:36:11.995Z,11.80
2023-03-24T13:38:46.584Z,11.90
2023-03-24T13:41:19.396Z,11.80
2023-03-24T13:43:52.155Z,11.70
2023-03-24T13:46:20.021Z,11.70
2023-03-24T13:48:52.620Z,11.80
2023-03-24T13:51:44.862Z,11.90
2023-03-24T13:54:21.975Z,11.90
2023-03-24T13:57:15.207Z,12.00
2023-03-24T14:00:12.451Z,12.10
2023-03-24T14:02:51.366Z,12.30
2023-03-24T14:05:58.800Z,12.10
2023-03-24T14:09:01.578Z,11.90
2023-03-24T14:12:15.290Z,11.90
2023-03-24T14:15:16.394Z,11.80
2023-03-24T14:17:44.708Z,11.80
2023-03-24T14:20:23.463Z,11.70
2023-03-24T14:22:51.929Z,11.70
2023-03-24T14:25:29.472Z,11.70
2023-03-24T14:28:21.357Z,11.70
2023-03-24T14:31:33.791Z,11.80
2023-03-24T14:34:20.424Z,11.80
2023-03-24T14:37:00.163Z,11.80
2023-03-24T14:39:47.236Z,11.80
2023-03-24T14:48:42.596Z,11.60
2023-03-24T14:51:36.743Z,11.70
2023-03-24T14:54:28.781Z,11.60
2023-03-24T14:56:57.818Z,11.50
2023-03-24T15:00:25.418Z,11.50
2023-03-24T15:03:40.156Z,11.50
2023-03-24T15:06:19.163Z,11.30
2023-03-24T15:08:50.826Z,11.10
2023-03-24T15:11:28.414Z,11.10
2023-03-24T15:13:57.598Z,11.00
2023-03-24T15:16:30.492Z,11.00
2023-03-24T15:19:02.318Z,10.80
2023-03-24T15:21:38.372Z,10.80
2023-03-24T15:24:27.396Z,10.60
2023-03-24T15:27:20.490Z,10.80
2023-03-24T15:29:54.908Z,10.80
2023-03-24T15:32:24.380Z,10.80
2023-03-24T15:34:57.085Z,10.70
2023-03-24T15:37:41.445Z,10.70
2023-03-24T15:40:32.003Z,10.70
2023-03-24T15:43:02.068Z,10.70
2023-03-24T15:45:43.234Z,10.60
2023-03-24T15:48:16.989Z,10.70
2023-03-24T15:50:59.796Z,10.70
2023-03-24T15:53:49.395Z,10.60
2023-03-24T15:56:31.811Z,10.80
2023-03-24T15:59:15.629Z,10.80
2023-03-24T16:01:45.164Z,10.70
2023-03-24T16:04:16.569Z,10.70
2023-03-24T16:06:57.728Z,10.50
2023-03-24T16:09:27.904Z,10.50
2023-03-24T16:11:55.268Z,10.40
2023-03-24T16:14:27.904Z,10.40
2023-03-24T16:17:00.737Z,10.60
2023-03-24T16:19:28.622Z,10.40
2023-03-24T16:21:56.124Z,10.30
2023-03-24T16:24:23.437Z,10.30
2023-03-24T16:26:50.713Z,10.30
2023-03-24T16:29:23.190Z,10.40
2023-03-24T16:31:52.787Z,10.50
2023-03-24T16:34:21.867Z,10.50
2023-03-24T16:36:51.573Z,10.50
2023-03-24T16:39:21.823Z,10.40
2023-03-24T16:41:49.061Z,10.40
2023-03-24T16:44:17.474Z,10.40
2023-03-24T16:46:46.865Z,10.30
2023-03-24T16:49:18.714Z,10.30
2023-03-24T16:51:46.738Z,10.20
2023-03-24T16:54:14.261Z,10.30
2023-03-24T16:56:41.535Z,10.30
2023-03-24T16:59:09.376Z,10.30
2023-03-24T17:01:42.262Z,10.20
2023-03-24T17:04:19.412Z,10.20
2023-03-24T17:06:53.702Z,10.30
2023-03-24T17:09:21.800Z,10.40
2023-03-24T17:11:51.383Z,10.40
2023-03-24T17:14:19.075Z,10.40
2023-03-24T17:16:48.432Z,10.10
2023-03-24T17:19:21.655Z,9.90
2023-03-24T17:22:07.640Z,9.90
2023-03-24T17:24:36.729Z,9.80
2023-03-24T17:27:10.450Z,9.80
2023-03-24T17:29:37.718Z,9.90
2023-03-24T17:32:04.895Z,9.80
2023-03-24T17:34:32.060Z,9.70
2023-03-24T17:36:59.384Z,9.60
2023-03-24T17:39:26.862Z,9.50
2023-03-24T17:41:57.661Z,9.60
2023-03-24T17:44:24.950Z,9.60
2023-03-24T17:46:52.083Z,9.70
2023-03-24T17:49:19.503Z,9.70
2023-03-24T17:51:46.569Z,9.70
2023-03-24T17:54:13.857Z,9.70
2023-03-24T17:56:40.919Z,9.60
2023-03-24T17:59:08.351Z,9.60
2023-03-24T18:01:39.443Z,9.60
2023-03-24T18:04:07.077Z,9.60
2023-03-24T18:06:34.600Z,9.50
2023-03-24T18:09:01.701Z,9.40
2023-03-24T18:11:28.988Z,9.50
2023-03-24T18:13:56.222Z,9.50
2023-03-24T18:16:25.327Z,9.40
2023-03-24T18:18:52.537Z,9.50
2023-03-24T18:21:20.021Z,9.50
2023-03-24T18:23:48.634Z,9.50
2023-03-24T18:26:17.528Z,9.50
2023-03-24T18:28:48.193Z,9.40
2023-03-24T18:31:22.176Z,9.50
2023-03-24T18:33:51.220Z,9.40
2023-03-24T18:36:26.668Z,9.30
2023-03-24T18:39:08.672Z,9.40
2023-03-24T18:41:37.473Z,9.30
2023-03-24T18:44:07.251Z,9.30
2023-03-24T18:46:34.566Z,9.20
2023-03-24T18:49:01.772Z,9.30
2023-03-24T18:51:28.871Z,9.30
2023-03-24T18:53:56.170Z,9.30
2023-03-24T18:56:23.884Z,9.30
2023-03-24T18:58:55.688Z,9.40
2023-03-24T19:01:27.041Z,9.30
2023-03-24T19:03:54.435Z,9.20
2023-03-24T19:06:21.850Z,9.10
2023-03-24T19:08:53.072Z,9.30
2023-03-24T19:11:21.210Z,9.20
2023-03-24T19:13:50.675Z,9.30
2023-03-24T19:16:19.292Z,9.20
2023-03-24T19:18:48.703Z,9.10
2023-03-24T19:21:17.228Z,9.10
2023-03-24T19:23:46.842Z,9.10
2023-03-24T19:26:16.184Z,9.20
2023-03-24T19:28:43.915Z,9.10
2023-03-24T19:31:13.625Z,9.00
2023-03-24T19:33:41.212Z,8.90
2023-03-24T19:36:09.316Z,8.90
2023-03-24T19:38:37.922Z,8.90
2023-03-24T19:41:11.698Z,8.90
2023-03-24T19:43:39.102Z,8.90
2023-03-24T19:46:06.651Z,8.80
2023-03-24T19:48:34.645Z,8.90
2023-03-24T19:51:01.883Z,8.90
2023-03-24T19:53:29.146Z,8.90
2023-03-24T19:55:58.297Z,8.90
2023-03-24T19:58:44.562Z,8.90
2023-03-24T20:01:16.121Z,8.80
2023-03-24T20:03:43.397Z,8.70
2023-03-24T20:06:10.860Z,8.80
2023-03-24T20:08:48.358Z,8.70
2023-03-24T20:11:15.564Z,8.80
2023-03-24T20:13:42.679Z,8.80
2023-03-24T20:16:09.882Z,8.80
2023-03-24T20:18:39.072Z,8.70
2023-03-24T20:21:07.126Z,8.70
2023-03-24T20:23:34.240Z,8.70
2023-03-24T20:26:01.661Z,8.70
2023-03-24T20:28:28.996Z,8.70
2023-03-24T20:31:01.519Z,8.70
2023-03-24T20:33:29.526Z,8.70
2023-03-24T20:35:57.520Z,8.70
2023-03-24T20:38:25.389Z,8.60
2023-03-24T20:41:06.494Z,8.60
2023-03-24T20:43:38.947Z,8.70
2023-03-24T20:46:10.374Z,8.60
2023-03-24T20:48:37.936Z,8.60
2023-03-24T20:51:05.871Z,8.60
2023-03-24T20:53:32.988Z,8.50
2023-03-24T20:56:01.559Z,8.60
2023-03-24T20:58:30.834Z,8.60
2023-03-24T21:00:58.375Z,8.60
2023-03-24T21:03:26.112Z,8.60
2023-03-24T21:05:53.268Z,8.50
2023-03-24T21:08:20.441Z,8.50
2023-03-24T21:10:47.681Z,8.50
2023-03-24T21:13:16.948Z,8.50
2023-03-24T21:15:44.868Z,8.60
2023-03-24T21:18:12.262Z,8.60
2023-03-24T21:20:40.228Z,8.70
2023-03-24T21:23:09.743Z,8.60
2023-03-24T21:25:37.751Z,8.60
2023-03-24T21:28:05.604Z,8.50
2023-03-24T21:30:32.909Z,8.50
2023-03-24T21:33:00.716Z,8.50
2023-03-24T21:35:28.264Z,8.60
2023-03-24T21:37:56.240Z,8.60
2023-03-24T21:40:25.537Z,8.40
2023-03-24T21:42:55.889Z,8.40
2023-03-24T21:45:24.008Z,8.40
2023-03-24T21:47:51.548Z,8.40
2023-03-24T21:50:23.415Z,8.30
2023-03-24T21:52:52.331Z,8.40
2023-03-24T21:55:21.249Z,8.50
2023-03-24T21:57:50.660Z,8.50
2023-03-24T22:00:20.582Z,8.60
2023-03-24T22:02:51.010Z,8.60
2023-03-24T22:05:21.275Z,8.60
2023-03-24T22:07:49.399Z,8.60
2023-03-24T22:10:24.658Z,8.60
2023-03-24T22:12:53.337Z,8.70
2023-03-24T22:15:21.119Z,8.70
2023-03-24T22:17:48.379Z,8.70
2023-03-24T22:20:16.244Z,8.70
2023-03-24T22:22:43.492Z,8.70
2023-03-24T22:25:12.919Z,8.70
2023-03-24T22:27:40.415Z,8.70
2023-03-24T22:30:09.265Z,8.80
2023-03-24T22:32:37.017Z,8.80
2023-03-24T22:35:04.775Z,8.70
2023-03-24T22:37:32.085Z,8.70
2023-03-24T22:39:59.218Z,8.70
2023-03-24T22:42:26.336Z,8.90
2023-03-24T22:44:53.411Z,9.20
2023-03-24T22:47:20.617Z,9.30
2023-03-24T22:49:48.146Z,9.20
2023-03-24T22:52:15.405Z,9.20
2023-03-24T22:54:42.516Z,9.10
2023-03-24T22:57:09.702Z,9.00
2023-03-24T22:59:36.818Z,8.90
2023-03-24T23:02:09.798Z,8.80
2023-03-24T23:04:37.470Z,8.80
2023-03-24T23:07:06.655Z,8.70
2023-03-24T23:09:34.255Z,8.60
2023-03-24T23:12:01.565Z,8.40
2023-03-24T23:14:28.862Z,8.30
2023-03-24T23:16:56.522Z,8.30
2023-03-24T23:19:23.633Z,8.20
2023-03-24T23:21:50.746Z,8.30
2023-03-24T23:24:18.273Z,8.20
2023-03-24T23:26:45.389Z,8.40
2023-03-24T23:29:14.025Z,8.60
2023-03-24T23:31:41.314Z,8.80
2023-03-24T23:34:11.226Z,8.80
2023-03-24T23:36:39.936Z,8.70
2023-03-24T23:39:07.039Z,8.80
2023-03-24T23:41:34.276Z,8.90
2023-03-24T23:44:01.614Z,8.80
2023-03-24T23:46:28.715Z,8.90
2023-03-24T23:48:56.055Z,8.70
2023-03-24T23:51:23.137Z,8.60
2023-03-24T23:53:50.348Z,8.50
2023-03-24T23:56:21.536Z,8.40
2023-03-24T23:58:48.804Z,8.40
